岡山グライダークラブ活動状況掲示板あなたは無料カウンター人目の訪問者です

岡山グライダークラブ
岡山市浦安南町639-1 岡南飛行場
 使用機:シャイベ式 SF25C型 ファルケ   JA2330
      ヴァレンティン式17E型 タイフーン  JA2342
 練習日:毎日曜日  クラブルーム:電話 086-265-1810
この掲示板は岡山グライダークラブの活動状況をお知らせする掲示板です。
!!!この掲示板は投稿規制をしています。!!!
クラブ関連各種情報は 岡山グライダークラブクラブルーム      を       .
  ブリーフイング情報は  岡山グライダークラブブリーフィングルーム  をご覧下さい。 .
※写真はクリックすると拡大して見ることが出来ます。
岡南飛行場へのアクセス等は 岡南飛行場管理事務所 をご覧ください。
クラブの ホームページ ができました。

 
09月08日
by OGC at 2019/9/8(日) 23:44:28 No.20190908234203  削除コメント
1024 x 768 x 69,673バイト
No.1

09月08日
本日の参加者
  会員      14名
  その他      0名


@本日の様子




METAR
RJBK 080000Z 11002KT 080V140 30KM FEW015CU SCT025CU 30/24 Q1010 A2983
RJOB 080000Z 10005KT 060V140 9999 FEW010 SCT015 BKN025 27/24 Q1011
RJOT 080000Z 11004KT 050V170 9999 FEW020 SCT/// 29/24 Q1011
RJOA 080000Z 12005KT 080V180 9999 FEW015 SCT120 27/22 Q1012
TAF
RJOB 072309Z 0800/0906 12008KT 9999 FEW015 SCT035
         BECMG 0812/0815 24006KT
RJOT 072309Z 0800/0906 09004KT 9999 FEW015 SCT025 BKN040
         BECMG 0803/0805 26005KT
         BECMG 0810/0812 15005KT
RJOA 072306Z 0800/0906 13005KT 9999 FEW015 SCT035
         BECMG 0808/0810 32004KT

朝から積雲が沢山出来てたので、期待していたのですが、昼頃から積雲がなくなっていました。
本日からファルケとタイフーンの2機体制で、ファルケはいつもの訓練フライトでソロ目前の課題克服のため、みんな頑張っていました。
一方、タイフーンは久々の訓練フライトになりました。

解散    16:55

1番機  10:50離陸 撤収機  16:15着陸 

SF25C JA2330 ファルケ     09Flt.2h30min  
17E   JA2342 タイフーン    05Flt.1h30min  
合計                    14Flt.4h00min

    << 戻る || ホームページ || 最新の掲示板へ